Time;durP1;ratioP1;P1;durP2;ratioP2;P2;SDS_P1;SDS_P2;PMS_P1;PMS_P2;Temp;Humidity;BMP_temperature;BMP_pressure;BME280_temperature;BME280_humidity;BME280_pressure;Samples;Min_cycle;Max_cycle;Signal;HPM_P1;HPM_P2
2023/01/27 00:00:32;;;;;;;11.32;11.13;;;1.00;99.90;;;;;;4253702;27;20046;-83
2023/01/27 00:02:53;;;;;;;10.82;10.55;;;1.40;99.90;;;;;;4264910;27;20049;-83
2023/01/27 00:05:14;;;;;;;11.02;10.38;;;1.70;99.90;;;;;;4262179;27;20380;-83
2023/01/27 00:07:35;;;;;;;11.00;10.60;;;1.90;99.90;;;;;;4263472;27;20058;-82
2023/01/27 00:09:54;;;;;;;10.45;9.98;;;1.90;99.90;;;;;;4251738;27;20081;-83
2023/01/27 00:14:59;;;;;;;10.68;9.93;;;1.90;99.90;;;;;;4265983;27;20057;-82
2023/01/27 00:17:19;;;;;;;10.73;10.32;;;2.00;99.90;;;;;;4267719;27;20046;-83
2023/01/27 00:19:43;;;;;;;11.00;10.60;;;2.00;99.90;;;;;;4265527;27;20073;-83
2023/01/27 00:24:42;;;;;;;9.75;9.55;;;2.20;99.90;;;;;;4257662;28;20045;-83
2023/01/27 00:27:09;;;;;;;9.18;9.07;;;2.20;99.90;;;;;;4263636;27;20042;-82
2023/01/27 00:29:29;;;;;;;10.25;10.00;;;2.20;99.90;;;;;;4267937;27;20361;-82
2023/01/27 00:34:27;;;;;;;10.57;10.20;;;2.20;99.90;;;;;;4266857;27;20056;-82
2023/01/27 00:36:47;;;;;;;10.40;9.85;;;2.20;99.90;;;;;;4263677;27;20050;-82
2023/01/27 00:39:09;;;;;;;11.77;11.38;;;2.20;99.90;;;;;;4264412;27;20102;-83
2023/01/27 00:41:29;;;;;;;10.60;10.20;;;2.20;99.90;;;;;;4260409;27;20053;-83
2023/01/27 00:43:52;;;;;;;11.35;10.90;;;2.20;99.90;;;;;;4251272;27;20050;-82
2023/01/27 00:46:12;;;;;;;10.75;10.45;;;2.30;99.90;;;;;;4263393;27;20042;-83
2023/01/27 00:48:33;;;;;;;11.25;11.00;;;2.20;99.90;;;;;;4262809;27;20076;-83
2023/01/27 00:50:53;;;;;;;12.25;11.93;;;2.10;99.90;;;;;;4255569;27;20262;-82
2023/01/27 00:53:13;;;;;;;10.85;10.43;;;2.10;99.90;;;;;;4265163;27;20034;-82
2023/01/27 00:55:32;;;;;;;10.77;10.02;;;2.10;99.90;;;;;;4264984;27;20111;-82
2023/01/27 00:57:52;;;;;;;11.25;10.95;;;2.10;99.90;;;;;;4268616;27;20057;-83
2023/01/27 01:00:14;;;;;;;10.80;10.40;;;2.00;99.90;;;;;;4256707;27;20096;-82
2023/01/27 01:02:35;;;;;;;10.20;10.00;;;2.00;99.90;;;;;;4264810;27;20049;-83
2023/01/27 01:04:55;;;;;;;10.25;9.95;;;2.10;99.90;;;;;;4264389;27;20070;-83
2023/01/27 01:07:15;;;;;;;12.05;11.75;;;2.10;99.90;;;;;;4254080;27;20045;-83
2023/01/27 01:09:35;;;;;;;11.77;11.18;;;2.00;99.90;;;;;;4267026;27;20361;-82
2023/01/27 01:11:55;;;;;;;11.43;11.02;;;2.00;99.90;;;;;;4256251;27;20053;-82
2023/01/27 01:14:14;;;;;;;11.02;10.73;;;2.10;99.90;;;;;;4264034;27;20062;-83
2023/01/27 01:16:34;;;;;;;12.60;11.82;;;2.20;99.90;;;;;;4255943;27;20130;-83
2023/01/27 01:18:53;;;;;;;11.38;11.07;;;2.20;99.90;;;;;;4248722;27;20412;-83
2023/01/27 01:21:13;;;;;;;11.15;10.88;;;2.10;99.90;;;;;;4253310;27;20066;-82
2023/01/27 01:23:38;;;;;;;10.85;10.65;;;2.20;99.90;;;;;;4259766;27;20043;-83
2023/01/27 01:25:58;;;;;;;10.52;10.32;;;2.20;99.90;;;;;;4259147;27;20038;-83
2023/01/27 01:28:18;;;;;;;10.45;10.00;;;2.10;99.90;;;;;;4256046;27;20042;-83
2023/01/27 01:30:37;;;;;;;9.90;9.32;;;2.10;99.90;;;;;;4261645;27;20065;-83
2023/01/27 01:32:57;;;;;;;9.63;9.40;;;2.10;99.90;;;;;;4263354;27;20057;-83
2023/01/27 01:35:18;;;;;;;9.85;9.48;;;2.10;99.90;;;;;;4256899;27;20042;-82
2023/01/27 01:37:38;;;;;;;9.93;9.73;;;2.10;99.90;;;;;;4251070;27;20054;-82
2023/01/27 01:39:58;;;;;;;9.95;9.43;;;2.10;99.90;;;;;;4248574;27;20050;-83
2023/01/27 01:42:19;;;;;;;10.68;10.27;;;2.20;99.90;;;;;;4256246;27;20042;-82
2023/01/27 01:44:44;;;;;;;10.85;10.65;;;2.10;99.90;;;;;;4254262;27;20076;-82
2023/01/27 01:47:04;;;;;;;10.43;10.23;;;2.20;99.90;;;;;;4258186;27;20115;-83
2023/01/27 01:49:38;;;;;;;10.23;10.05;;;2.20;99.90;;;;;;4265197;27;20041;-83
2023/01/27 01:52:05;;;;;;;10.90;10.50;;;2.10;99.90;;;;;;4249555;27;20115;-83
2023/01/27 01:54:30;;;;;;;10.45;10.25;;;2.10;99.90;;;;;;4263950;27;20104;-82
2023/01/27 01:56:59;;;;;;;10.02;9.82;;;2.10;99.90;;;;;;4263657;27;20287;-82
2023/01/27 01:59:24;;;;;;;10.55;10.35;;;2.10;99.90;;;;;;4252614;27;20035;-83
2023/01/27 02:01:45;;;;;;;10.48;10.27;;;2.10;99.90;;;;;;4265602;27;20107;-83
2023/01/27 02:04:10;;;;;;;10.63;10.32;;;2.10;99.90;;;;;;4250538;27;20286;-82
2023/01/27 02:06:39;;;;;;;10.07;9.77;;;2.00;99.90;;;;;;4261732;27;20418;-83
2023/01/27 02:09:00;;;;;;;9.38;9.10;;;2.10;99.90;;;;;;4251250;27;20042;-83
2023/01/27 02:11:19;;;;;;;10.05;9.77;;;2.10;99.90;;;;;;4260100;27;20099;-83
2023/01/27 02:13:41;;;;;;;9.18;8.98;;;2.10;99.90;;;;;;4245772;27;20486;-83
2023/01/27 02:16:01;;;;;;;9.02;8.57;;;2.20;99.90;;;;;;4249790;27;20406;-83
2023/01/27 02:18:21;;;;;;;8.90;8.70;;;2.20;99.90;;;;;;4259286;27;20267;-82
2023/01/27 02:20:54;;;;;;;11.38;11.02;;;2.20;99.90;;;;;;4255597;27;20105;-82
2023/01/27 02:23:24;;;;;;;9.93;9.82;;;2.30;99.90;;;;;;4260507;27;20246;-82
2023/01/27 02:26:01;;;;;;;9.68;9.50;;;2.30;99.90;;;;;;4255675;27;20047;-83
2023/01/27 02:28:21;;;;;;;10.02;9.80;;;2.30;99.90;;;;;;4253694;27;20388;-82
2023/01/27 02:30:42;;;;;;;9.93;9.73;;;2.20;99.90;;;;;;4248261;27;20404;-82
2023/01/27 02:33:05;;;;;;;10.25;9.73;;;2.30;99.90;;;;;;4259182;27;20092;-83
2023/01/27 02:35:40;;;;;;;10.23;10.02;;;2.30;99.90;;;;;;4264873;27;20074;-82
2023/01/27 02:38:00;;;;;;;10.05;9.85;;;2.20;99.90;;;;;;4262065;27;20280;-83
2023/01/27 02:40:22;;;;;;;10.25;9.75;;;2.30;99.90;;;;;;4256622;27;20050;-82
2023/01/27 02:42:41;;;;;;;8.82;8.70;;;2.20;99.90;;;;;;4264576;27;20089;-83
2023/01/27 02:45:01;;;;;;;8.85;8.75;;;2.30;99.90;;;;;;4265206;27;20050;-82
2023/01/27 02:47:21;;;;;;;9.55;9.25;;;2.30;99.90;;;;;;4252221;27;20047;-83
2023/01/27 02:49:41;;;;;;;9.10;8.90;;;2.30;99.90;;;;;;4254689;27;20038;-83
2023/01/27 02:52:00;;;;;;;9.77;9.48;;;2.30;99.90;;;;;;4251268;27;20080;-83
2023/01/27 02:54:20;;;;;;;10.13;10.02;;;2.30;99.90;;;;;;4252918;27;20090;-82
2023/01/27 02:56:40;;;;;;;10.25;9.88;;;2.30;99.90;;;;;;4263550;27;20084;-83
2023/01/27 02:59:00;;;;;;;10.27;9.60;;;2.30;99.90;;;;;;4256090;27;20065;-82
2023/01/27 03:01:19;;;;;;;9.00;8.73;;;2.30;99.90;;;;;;4262085;27;20081;-82
2023/01/27 03:03:42;;;;;;;10.15;9.95;;;2.30;99.90;;;;;;4263475;27;20042;-83
2023/01/27 03:06:02;;;;;;;9.82;9.63;;;2.30;99.90;;;;;;4268219;27;20148;-83
2023/01/27 03:08:23;;;;;;;10.18;9.88;;;2.20;99.90;;;;;;4261737;27;20450;-83
2023/01/27 03:10:43;;;;;;;10.57;10.35;;;2.20;99.90;;;;;;4258014;27;20080;-82
2023/01/27 03:13:04;;;;;;;9.40;9.20;;;2.20;99.90;;;;;;4268301;27;20365;-83
2023/01/27 03:18:17;;;;;;;10.75;10.55;;;2.20;99.90;;;;;;4265516;27;20046;-83
2023/01/27 03:20:38;;;;;;;9.93;9.73;;;2.10;99.90;;;;;;4255303;27;20365;-82
2023/01/27 03:22:57;;;;;;;9.38;9.07;;;2.10;99.90;;;;;;4248534;27;20046;-82
2023/01/27 03:25:18;;;;;;;8.93;8.80;;;2.10;99.90;;;;;;4258272;27;20065;-83
2023/01/27 03:27:38;;;;;;;9.55;9.45;;;2.00;99.90;;;;;;4257745;27;20080;-82
2023/01/27 03:29:58;;;;;;;8.82;8.63;;;1.90;99.90;;;;;;4264010;27;20096;-83
2023/01/27 03:32:19;;;;;;;9.05;8.85;;;1.90;99.90;;;;;;4250798;27;20042;-82
2023/01/27 03:34:39;;;;;;;9.10;8.95;;;1.90;99.90;;;;;;4258611;27;20038;-82
2023/01/27 03:47:33;;;;;;;10.48;10.18;;;2.20;99.90;;;;;;4267808;27;20049;-82
2023/01/27 03:49:53;;;;;;;10.07;9.43;;;2.10;99.90;;;;;;4262848;27;20392;-83
2023/01/27 03:52:13;;;;;;;10.05;9.65;;;2.10;99.90;;;;;;4264647;27;20328;-82
2023/01/27 03:54:33;;;;;;;9.50;9.40;;;2.10;99.90;;;;;;4266084;27;20075;-82
2023/01/27 03:56:53;;;;;;;9.85;9.40;;;2.10;99.90;;;;;;4252375;27;20107;-82
2023/01/27 03:59:13;;;;;;;9.52;9.27;;;2.10;99.90;;;;;;4249335;27;20077;-83
2023/01/27 04:01:33;;;;;;;9.68;9.15;;;2.10;99.90;;;;;;4252203;27;20107;-82
2023/01/27 04:06:53;;;;;;;9.52;9.27;;;2.10;99.90;;;;;;4263669;27;20169;-82
2023/01/27 04:09:27;;;;;;;10.23;10.02;;;2.10;99.90;;;;;;4246511;27;20078;-82
2023/01/27 04:11:59;;;;;;;10.02;9.82;;;2.10;99.90;;;;;;4259250;27;20405;-83
2023/01/27 04:14:25;;;;;;;9.77;9.57;;;2.10;99.90;;;;;;4263043;27;20242;-82
2023/01/27 04:16:45;;;;;;;9.57;9.40;;;2.00;99.90;;;;;;4248726;27;20054;-82
2023/01/27 04:19:07;;;;;;;9.52;9.23;;;2.00;99.90;;;;;;4261855;27;20066;-82
2023/01/27 04:21:28;;;;;;;10.75;10.45;;;2.10;99.90;;;;;;4255312;27;20105;-83
2023/01/27 04:23:47;;;;;;;9.55;9.35;;;2.10;99.90;;;;;;4262433;27;20056;-82
2023/01/27 04:26:08;;;;;;;10.98;10.20;;;2.00;99.90;;;;;;4263378;27;20069;-82
2023/01/27 04:28:27;;;;;;;10.30;10.10;;;2.00;99.90;;;;;;4262406;27;20276;-82
2023/01/27 04:31:03;;;;;;;10.02;9.80;;;1.90;99.90;;;;;;4262870;27;20072;-83
2023/01/27 04:33:23;;;;;;;10.15;9.85;;;1.90;99.90;;;;;;4267448;27;20076;-82
2023/01/27 04:35:44;;;;;;;9.85;9.45;;;1.90;99.90;;;;;;4266516;27;20113;-82
2023/01/27 04:38:04;;;;;;;9.52;9.40;;;1.90;99.90;;;;;;4265077;27;20258;-83
2023/01/27 04:40:24;;;;;;;10.30;10.00;;;1.90;99.90;;;;;;4263708;27;20083;-82
2023/01/27 04:42:44;;;;;;;9.13;8.93;;;1.90;99.90;;;;;;4267561;27;20084;-83
2023/01/27 04:45:04;;;;;;;9.73;9.63;;;1.90;99.90;;;;;;4266024;27;20053;-82
2023/01/27 04:47:24;;;;;;;10.23;9.93;;;1.90;99.90;;;;;;4251044;27;20078;-83
2023/01/27 04:49:43;;;;;;;10.30;9.75;;;1.80;99.90;;;;;;4267940;27;20037;-83
2023/01/27 04:52:03;;;;;;;9.75;9.63;;;1.80;99.90;;;;;;4267678;27;20050;-83
2023/01/27 04:54:24;;;;;;;10.43;10.20;;;1.90;99.90;;;;;;4263202;27;20042;-82
2023/01/27 04:57:04;;;;;;;9.88;9.68;;;1.90;99.90;;;;;;4256516;27;20046;-83
2023/01/27 04:59:24;;;;;;;10.40;10.18;;;1.90;99.90;;;;;;4262808;27;20406;-83
2023/01/27 05:01:44;;;;;;;10.15;9.98;;;1.80;99.90;;;;;;4257540;27;20235;-82
2023/01/27 05:04:04;;;;;;;10.40;9.82;;;1.70;99.90;;;;;;4265612;27;20084;-82
2023/01/27 05:06:25;;;;;;;9.45;9.32;;;1.70;99.90;;;;;;4251752;27;20049;-83
2023/01/27 05:08:44;;;;;;;8.80;8.70;;;1.70;99.90;;;;;;4248614;27;20039;-83
2023/01/27 05:11:04;;;;;;;9.93;9.73;;;1.80;99.90;;;;;;4262283;27;20084;-82
2023/01/27 05:13:24;;;;;;;10.15;9.85;;;1.80;99.90;;;;;;4260785;27;20037;-82
2023/01/27 05:15:44;;;;;;;9.73;9.32;;;1.80;99.90;;;;;;4258556;27;20235;-83
2023/01/27 05:18:04;;;;;;;10.88;10.68;;;1.80;99.90;;;;;;4256663;27;20050;-82
2023/01/27 05:20:24;;;;;;;10.15;9.90;;;1.80;99.90;;;;;;4251158;27;20115;-82
2023/01/27 05:22:45;;;;;;;8.98;8.85;;;1.80;99.90;;;;;;4252950;27;20114;-83
2023/01/27 05:25:05;;;;;;;10.65;10.00;;;1.70;99.90;;;;;;4261116;27;20057;-82
2023/01/27 05:27:25;;;;;;;10.18;9.48;;;1.70;99.90;;;;;;4265281;27;20046;-82
2023/01/27 05:29:45;;;;;;;9.90;9.77;;;1.70;99.90;;;;;;4254930;27;20038;-83
2023/01/27 05:32:05;;;;;;;10.57;10.00;;;1.70;99.90;;;;;;4249646;27;20081;-82
2023/01/27 05:34:25;;;;;;;9.15;9.05;;;1.70;99.90;;;;;;4267203;27;20042;-82
2023/01/27 05:36:45;;;;;;;10.07;9.88;;;1.70;99.90;;;;;;4253323;27;20276;-82
2023/01/27 05:39:05;;;;;;;11.70;11.10;;;1.70;99.90;;;;;;4258242;27;20460;-83
2023/01/27 05:41:33;;;;;;;11.70;11.30;;;1.60;99.90;;;;;;4256226;27;20078;-83
2023/01/27 05:43:54;;;;;;;10.07;9.88;;;1.60;99.90;;;;;;4256042;27;20093;-82
2023/01/27 05:46:16;;;;;;;10.55;10.10;;;1.60;99.90;;;;;;4250318;27;20080;-83
2023/01/27 05:48:39;;;;;;;10.43;10.32;;;1.60;99.90;;;;;;4246790;27;20049;-82
2023/01/27 05:50:59;;;;;;;9.48;9.38;;;1.60;99.90;;;;;;4251272;27;20084;-83
2023/01/27 05:53:19;;;;;;;9.80;9.55;;;1.60;99.90;;;;;;4265577;27;20062;-83
2023/01/27 05:55:42;;;;;;;9.95;9.77;;;1.60;99.90;;;;;;4256561;27;20395;-83
2023/01/27 05:58:02;;;;;;;9.63;9.43;;;1.60;99.90;;;;;;4265017;27;20053;-83
2023/01/27 06:00:22;;;;;;;10.55;10.35;;;1.60;99.90;;;;;;4265402;27;20045;-82
2023/01/27 06:02:42;;;;;;;10.30;9.82;;;1.60;99.90;;;;;;4266107;27;20057;-82
2023/01/27 06:05:02;;;;;;;12.25;11.40;;;1.60;99.90;;;;;;4259814;27;20046;-82
2023/01/27 06:07:23;;;;;;;17.17;12.05;;;1.60;99.90;;;;;;4246826;27;20050;-83
2023/01/27 06:09:43;;;;;;;10.25;9.90;;;1.60;99.90;;;;;;4263641;27;20460;-82
2023/01/27 06:12:03;;;;;;;9.02;8.93;;;1.60;99.90;;;;;;4261215;27;20042;-83
2023/01/27 06:14:23;;;;;;;10.15;9.95;;;1.60;99.90;;;;;;4249657;27;20055;-82
2023/01/27 06:16:45;;;;;;;10.80;10.27;;;1.60;99.90;;;;;;4255030;27;20191;-82
2023/01/27 06:19:05;;;;;;;;;;;1.60;99.90;;;;;;4262335;27;20396;-82
2023/01/27 06:21:25;;;;;;;10.63;9.65;;;1.60;99.90;;;;;;4245605;27;20114;-83
2023/01/27 06:23:45;;;;;;;9.82;9.63;;;1.60;99.90;;;;;;4266304;27;20038;-82
2023/01/27 06:26:14;;;;;;;9.10;9.00;;;1.60;99.90;;;;;;4260561;27;20138;-82
2023/01/27 06:28:35;;;;;;;9.98;9.82;;;1.60;99.90;;;;;;4258073;27;20134;-82
2023/01/27 06:31:03;;;;;;;9.38;9.27;;;1.60;99.90;;;;;;4257137;27;20049;-82
2023/01/27 06:33:23;;;;;;;9.90;9.80;;;1.60;99.90;;;;;;4244998;27;20067;-82
2023/01/27 06:35:43;;;;;;;9.82;9.63;;;1.60;99.90;;;;;;4264736;27;20404;-82
2023/01/27 06:38:05;;;;;;;9.60;9.32;;;1.60;99.90;;;;;;4262751;27;20060;-82
2023/01/27 06:40:27;;;;;;;10.85;10.45;;;1.60;99.90;;;;;;4266548;27;20066;-82
2023/01/27 06:42:47;;;;;;;10.38;10.15;;;1.60;99.90;;;;;;4265734;27;20242;-82
2023/01/27 06:45:07;;;;;;;9.73;9.52;;;1.60;99.90;;;;;;4265843;27;20076;-82
2023/01/27 06:47:27;;;;;;;10.45;9.65;;;1.60;99.90;;;;;;4259631;27;20042;-82
2023/01/27 06:49:46;;;;;;;10.25;9.95;;;1.60;99.90;;;;;;4263278;27;20369;-82
2023/01/27 06:52:06;;;;;;;10.95;10.65;;;1.60;99.90;;;;;;4267192;27;20049;-82
2023/01/27 06:54:26;;;;;;;10.77;10.43;;;1.60;99.90;;;;;;4266298;27;20050;-82
2023/01/27 06:56:45;;;;;;;10.75;10.05;;;1.50;99.90;;;;;;4262234;27;20049;-82
2023/01/27 06:59:05;;;;;;;10.77;10.15;;;1.50;99.90;;;;;;4261742;27;20087;-82
2023/01/27 07:01:26;;;;;;;9.50;9.30;;;1.50;99.90;;;;;;4264340;27;20045;-82
2023/01/27 07:03:47;;;;;;;11.10;10.63;;;1.60;99.90;;;;;;4258162;27;20098;-82
2023/01/27 07:06:06;;;;;;;11.80;11.43;;;1.50;99.90;;;;;;4270611;27;20294;-82
2023/01/27 07:08:26;;;;;;;10.70;10.15;;;1.60;99.90;;;;;;4266318;27;20037;-82
2023/01/27 07:10:46;;;;;;;11.20;10.70;;;1.60;99.90;;;;;;4259381;27;20050;-83
2023/01/27 07:13:11;;;;;;;16.77;15.48;;;1.60;99.90;;;;;;4259050;27;20092;-82
2023/01/27 07:15:31;;;;;;;11.32;10.93;;;1.60;99.90;;;;;;4258424;27;20086;-82
2023/01/27 07:17:50;;;;;;;12.23;11.70;;;1.50;99.90;;;;;;4269630;27;20057;-82
2023/01/27 07:20:12;;;;;;;10.27;9.75;;;1.60;99.90;;;;;;4264067;27;20368;-82
2023/01/27 07:22:32;;;;;;;11.50;11.20;;;1.60;99.90;;;;;;4260713;27;20070;-83
2023/01/27 07:24:54;;;;;;;10.43;10.23;;;1.70;99.90;;;;;;4262124;27;20280;-82
2023/01/27 07:27:14;;;;;;;14.05;13.23;;;1.70;99.90;;;;;;4269835;27;20070;-82
2023/01/27 07:29:34;;;;;;;11.32;11.02;;;1.70;99.90;;;;;;4250809;27;20054;-83
2023/01/27 07:31:54;;;;;;;10.73;10.52;;;1.60;99.90;;;;;;4259552;27;20234;-83
2023/01/27 07:34:14;;;;;;;10.05;9.75;;;1.60;99.90;;;;;;4248693;27;20050;-83
2023/01/27 07:36:34;;;;;;;11.13;10.82;;;1.60;99.90;;;;;;4264413;27;20273;-83
2023/01/27 07:38:53;;;;;;;9.52;9.32;;;1.60;99.90;;;;;;4259021;27;20061;-83
2023/01/27 07:41:13;;;;;;;10.18;9.90;;;1.60;99.90;;;;;;4256164;27;20336;-84
2023/01/27 07:43:34;;;;;;;9.65;9.45;;;1.60;99.90;;;;;;4256815;27;20415;-83
2023/01/27 07:45:55;;;;;;;10.40;10.07;;;1.60;99.90;;;;;;4257326;27;20054;-83
2023/01/27 07:48:16;;;;;;;9.70;9.50;;;1.60;99.90;;;;;;4255177;27;20370;-83
2023/01/27 07:50:38;;;;;;;9.98;9.68;;;1.50;99.90;;;;;;4262568;27;20046;-84
2023/01/27 07:52:59;;;;;;;10.10;9.80;;;1.60;99.90;;;;;;4267470;27;20237;-83
2023/01/27 07:55:19;;;;;;;10.65;9.80;;;1.50;99.90;;;;;;4247154;27;20296;-83
2023/01/27 07:57:39;;;;;;;8.88;8.77;;;1.50;99.90;;;;;;4248255;27;20090;-83
2023/01/27 07:59:59;;;;;;;10.10;9.80;;;1.50;99.90;;;;;;4266976;27;20230;-83
2023/01/27 08:02:19;;;;;;;9.68;9.48;;;1.50;99.90;;;;;;4258434;27;20103;-84
2023/01/27 08:04:39;;;;;;;9.40;9.27;;;1.50;99.90;;;;;;4254961;27;20088;-83
2023/01/27 08:07:12;;;;;;;9.90;9.60;;;1.50;99.90;;;;;;4258860;27;20111;-83
2023/01/27 08:09:32;;;;;;;9.52;9.32;;;1.60;99.90;;;;;;4251897;27;20085;-83
2023/01/27 08:11:51;;;;;;;9.55;9.25;;;1.60;99.90;;;;;;4250058;27;20042;-83
2023/01/27 08:14:12;;;;;;;9.65;8.95;;;1.70;99.90;;;;;;4265602;27;20102;-84
2023/01/27 08:16:32;;;;;;;9.88;9.68;;;1.70;99.90;;;;;;4270609;27;20111;-84
2023/01/27 08:18:53;;;;;;;9.25;9.05;;;1.70;99.90;;;;;;4256514;27;20038;-84
2023/01/27 08:21:13;;;;;;;9.02;8.82;;;1.80;99.90;;;;;;4271023;27;20105;-84
2023/01/27 08:23:33;;;;;;;9.48;9.20;;;1.80;99.90;;;;;;4255699;27;20155;-83
2023/01/27 08:25:56;;;;;;;8.93;8.82;;;1.80;99.90;;;;;;4253628;27;20110;-83
2023/01/27 08:28:16;;;;;;;10.25;9.98;;;1.80;99.90;;;;;;4257469;27;20092;-83
2023/01/27 08:30:36;;;;;;;9.65;9.45;;;1.90;99.90;;;;;;4258194;27;20103;-83
2023/01/27 08:32:56;;;;;;;9.32;9.23;;;1.90;99.90;;;;;;4269157;27;20320;-84
2023/01/27 08:35:16;;;;;;;9.20;8.98;;;2.00;99.90;;;;;;4258001;27;20050;-83
2023/01/27 08:37:36;;;;;;;9.43;9.32;;;2.00;99.90;;;;;;4254641;27;20050;-84
2023/01/27 08:39:56;;;;;;;10.10;9.90;;;2.10;99.90;;;;;;4264977;27;20095;-83
2023/01/27 08:42:15;;;;;;;8.98;8.65;;;2.20;99.90;;;;;;4256410;27;20097;-83
2023/01/27 08:44:35;;;;;;;8.63;8.43;;;2.30;99.90;;;;;;4262471;27;20114;-84
2023/01/27 08:46:56;;;;;;;8.60;8.30;;;2.30;99.90;;;;;;4255861;27;20073;-83
2023/01/27 08:49:15;;;;;;;8.68;8.57;;;2.40;99.90;;;;;;4256353;27;20295;-84
2023/01/27 08:51:38;;;;;;;9.52;9.27;;;2.50;99.90;;;;;;4265533;27;20046;-83
2023/01/27 08:53:58;;;;;;;9.88;9.57;;;2.40;99.90;;;;;;4244911;27;20046;-83
2023/01/27 08:56:18;;;;;;;8.00;7.90;;;2.40;99.90;;;;;;4263942;27;20046;-84
2023/01/27 08:58:38;;;;;;;10.40;10.02;;;2.40;99.90;;;;;;4265513;27;20077;-83
2023/01/27 09:01:00;;;;;;;8.20;8.00;;;2.40;99.90;;;;;;4260981;27;20046;-84
2023/01/27 09:03:20;;;;;;;8.02;7.88;;;2.50;99.90;;;;;;4249723;27;20384;-84
2023/01/27 09:05:40;;;;;;;8.82;8.63;;;2.40;99.90;;;;;;4257238;27;20091;-84
2023/01/27 09:08:01;;;;;;;10.27;9.80;;;2.50;99.90;;;;;;4263400;27;20038;-84
2023/01/27 09:10:20;;;;;;;9.60;9.00;;;2.40;99.90;;;;;;4251743;27;20054;-84
2023/01/27 09:12:42;;;;;;;9.82;9.52;;;2.50;99.90;;;;;;4255734;27;20076;-84
2023/01/27 09:15:02;;;;;;;8.65;8.27;;;2.60;99.90;;;;;;4249643;27;20139;-84
2023/01/27 09:17:22;;;;;;;9.18;9.00;;;2.60;99.90;;;;;;4251744;27;20152;-84
2023/01/27 09:19:42;;;;;;;9.93;9.52;;;2.50;99.90;;;;;;4249524;27;20082;-84
2023/01/27 09:22:04;;;;;;;10.88;9.95;;;2.50;99.90;;;;;;4263196;27;20087;-84
2023/01/27 09:24:24;;;;;;;8.10;7.90;;;2.50;99.90;;;;;;4262588;27;20322;-84
2023/01/27 09:26:44;;;;;;;10.07;9.68;;;2.50;99.90;;;;;;4255959;27;20285;-84
2023/01/27 09:29:04;;;;;;;11.55;11.07;;;2.60;99.90;;;;;;4260332;27;20038;-84
2023/01/27 09:31:24;;;;;;;10.02;9.73;;;2.50;99.90;;;;;;4250411;27;20050;-84
2023/01/27 09:33:44;;;;;;;10.00;9.70;;;2.50;99.90;;;;;;4264907;27;20050;-84
2023/01/27 09:36:10;;;;;;;10.05;9.75;;;2.50;99.90;;;;;;4259676;27;20045;-84
2023/01/27 09:38:35;;;;;;;8.88;8.68;;;2.50;99.90;;;;;;4246165;27;20054;-84
2023/01/27 09:41:14;;;;;;;9.45;9.25;;;2.60;99.90;;;;;;4248216;27;20043;-84
2023/01/27 09:44:12;;;;;;;8.70;8.60;;;2.50;99.90;;;;;;4258886;27;20296;-84
2023/01/27 09:46:40;;;;;;;9.85;9.55;;;2.50;99.90;;;;;;4252074;27;20400;-84
2023/01/27 09:49:22;;;;;;;8.65;8.20;;;2.50;99.90;;;;;;4254326;27;20041;-84
2023/01/27 09:52:06;;;;;;;7.43;7.22;;;2.60;99.90;;;;;;4245333;27;20081;-84
2023/01/27 09:54:54;;;;;;;9.18;8.98;;;2.70;99.90;;;;;;4266153;27;20043;-84
2023/01/27 09:57:37;;;;;;;8.05;7.82;;;2.90;99.90;;;;;;4250115;27;20405;-83
2023/01/27 10:00:25;;;;;;;7.57;7.40;;;3.00;99.90;;;;;;4253835;27;20141;-83
2023/01/27 10:02:59;;;;;;;9.40;9.05;;;3.10;99.90;;;;;;4256337;27;20050;-83
2023/01/27 10:05:43;;;;;;;13.00;12.30;;;3.30;99.90;;;;;;4247799;27;20035;-83
2023/01/27 10:08:31;;;;;;;16.88;15.15;;;3.30;99.90;;;;;;4266151;27;20042;-83
2023/01/27 10:11:00;;;;;;;13.70;12.75;;;3.30;99.90;;;;;;4266529;27;20045;-84
2023/01/27 10:13:20;;;;;;;8.77;8.38;;;3.30;99.90;;;;;;4247358;27;20105;-83
2023/01/27 10:16:09;;;;;;;8.40;8.20;;;3.30;99.90;;;;;;4260158;27;20300;-84
2023/01/27 10:18:38;;;;;;;9.27;8.77;;;3.30;99.90;;;;;;4262402;27;20045;-83
2023/01/27 10:21:13;;;;;;;11.63;10.85;;;3.40;99.90;;;;;;4259223;27;20041;-84
2023/01/27 10:24:01;;;;;;;12.02;11.15;;;3.40;99.90;;;;;;4269763;27;20054;-84
2023/01/27 10:26:38;;;;;;;9.57;9.27;;;3.60;99.90;;;;;;4262499;27;20058;-84
2023/01/27 10:29:27;;;;;;;8.52;8.23;;;3.70;99.90;;;;;;4252134;27;20038;-84
2023/01/27 10:31:59;;;;;;;8.82;8.57;;;3.80;99.90;;;;;;4232026;27;20263;-84
2023/01/27 10:34:34;;;;;;;9.07;8.65;;;3.80;99.90;;;;;;4266374;27;20049;-84
2023/01/27 10:36:54;;;;;;;9.13;8.70;;;3.80;99.90;;;;;;4264168;27;20050;-83
2023/01/27 10:39:45;;;;;;;8.48;8.38;;;3.70;99.90;;;;;;4260083;27;20046;-84
2023/01/27 10:42:31;;;;;;;9.30;9.00;;;3.60;99.90;;;;;;4267744;27;20285;-84
2023/01/27 10:45:38;;;;;;;10.82;10.32;;;3.60;99.90;;;;;;4249393;27;20223;-84
2023/01/27 10:48:17;;;;;;;11.35;10.85;;;3.50;99.90;;;;;;4248723;27;20316;-83
2023/01/27 10:51:00;;;;;;;9.18;8.88;;;3.40;99.90;;;;;;4248641;27;20114;-84
2023/01/27 10:53:57;;;;;;;13.18;12.38;;;3.30;99.90;;;;;;4264849;27;20396;-84
2023/01/27 10:56:26;;;;;;;12.35;11.85;;;3.20;99.90;;;;;;4265617;27;20049;-84
2023/01/27 10:59:22;;;;;;;11.93;11.43;;;3.20;99.90;;;;;;4252090;27;20050;-84
2023/01/27 11:01:52;;;;;;;9.77;9.27;;;3.10;99.90;;;;;;4264083;27;20069;-84
2023/01/27 11:04:19;;;;;;;10.30;10.10;;;3.10;99.90;;;;;;4254230;27;20046;-84
2023/01/27 11:06:42;;;;;;;11.93;11.10;;;3.00;99.90;;;;;;4268517;27;20106;-84
2023/01/27 11:09:28;;;;;;;12.52;11.63;;;2.90;99.90;;;;;;4256196;27;20038;-84
2023/01/27 11:11:48;;;;;;;13.63;12.65;;;2.90;99.90;;;;;;4270764;27;20263;-84
2023/01/27 11:14:28;;;;;;;14.10;13.02;;;2.80;99.90;;;;;;4256676;28;20057;-84
2023/01/27 11:17:01;;;;;;;11.38;10.77;;;2.70;99.90;;;;;;4256250;27;20132;-84
2023/01/27 11:19:44;;;;;;;16.60;15.25;;;2.80;99.90;;;;;;4272896;27;20079;-84
2023/01/27 11:22:13;;;;;;;9.35;8.85;;;2.80;99.90;;;;;;4255659;27;20141;-84
2023/01/27 11:24:43;;;;;;;8.77;8.40;;;2.80;99.90;;;;;;4248568;27;20054;-83
2023/01/27 11:27:35;;;;;;;11.07;10.70;;;2.90;99.90;;;;;;4256291;27;20043;-84
2023/01/27 11:30:01;;;;;;;8.77;8.48;;;2.80;99.90;;;;;;4249479;27;20037;-84
2023/01/27 11:32:59;;;;;;;9.75;9.65;;;2.70;99.90;;;;;;4266829;27;20132;-83
2023/01/27 11:35:20;;;;;;;10.20;9.90;;;2.60;99.90;;;;;;4264024;27;20042;-83
2023/01/27 11:37:44;;;;;;;10.00;9.80;;;2.60;99.90;;;;;;4268073;27;20156;-83
2023/01/27 11:40:17;;;;;;;9.55;9.23;;;2.50;99.90;;;;;;4269610;27;20042;-83
2023/01/27 11:42:37;;;;;;;9.18;8.88;;;2.50;99.90;;;;;;4251018;27;20081;-83
2023/01/27 11:44:58;;;;;;;9.90;9.68;;;2.60;99.90;;;;;;4255331;27;20039;-83
2023/01/27 11:47:26;;;;;;;9.75;9.48;;;2.70;99.90;;;;;;4255266;27;20085;-83
2023/01/27 11:49:50;;;;;;;11.60;11.25;;;2.80;99.90;;;;;;4266982;27;20049;-84
2023/01/27 11:52:15;;;;;;;9.45;9.02;;;2.90;99.90;;;;;;4267803;27;20050;-84
2023/01/27 11:54:59;;;;;;;9.23;9.02;;;2.90;99.90;;;;;;4265055;27;20045;-83
2023/01/27 11:57:24;;;;;;;10.55;10.30;;;2.90;99.90;;;;;;4258078;27;20081;-84
2023/01/27 11:59:47;;;;;;;10.63;10.15;;;2.70;99.90;;;;;;4254139;27;20096;-84
2023/01/27 12:02:06;;;;;;;9.50;9.30;;;2.80;99.90;;;;;;4263339;27;20042;-83
2023/01/27 12:04:55;;;;;;;9.60;9.40;;;2.80;99.90;;;;;;4265174;27;20243;-83
2023/01/27 12:07:42;;;;;;;10.25;9.95;;;2.70;99.90;;;;;;4246525;27;20084;-83
2023/01/27 12:10:19;;;;;;;8.90;8.65;;;2.70;99.90;;;;;;4261587;27;20046;-84
2023/01/27 12:12:39;;;;;;;11.00;10.73;;;2.70;99.90;;;;;;4255490;27;20046;-84
2023/01/27 12:15:03;;;;;;;10.20;9.90;;;2.80;99.90;;;;;;4260617;27;20041;-83
2023/01/27 12:17:29;;;;;;;10.13;9.55;;;2.90;99.90;;;;;;4250156;27;20046;-83
2023/01/27 12:19:53;;;;;;;11.45;10.80;;;3.00;99.90;;;;;;4251867;27;20057;-84
2023/01/27 12:22:47;;;;;;;9.55;9.25;;;3.10;99.90;;;;;;4252929;27;20054;-83
2023/01/27 12:25:15;;;;;;;10.02;9.55;;;3.10;99.90;;;;;;4251868;27;20381;-84
2023/01/27 12:27:45;;;;;;;11.02;10.40;;;3.10;99.90;;;;;;4267866;27;20153;-84
2023/01/27 12:30:16;;;;;;;9.38;8.90;;;3.20;99.90;;;;;;4264073;27;20372;-84
2023/01/27 12:32:42;;;;;;;10.63;10.27;;;3.20;99.90;;;;;;4255825;27;20080;-84
2023/01/27 12:35:03;;;;;;;10.48;9.90;;;3.10;99.90;;;;;;4249619;27;20107;-83
2023/01/27 12:37:30;;;;;;;22.70;20.27;;;3.00;99.90;;;;;;4250182;27;20041;-83
2023/01/27 12:39:56;;;;;;;12.32;11.85;;;3.00;99.90;;;;;;4250296;27;20064;-84
2023/01/27 12:42:36;;;;;;;12.77;12.07;;;3.00;99.90;;;;;;4256832;27;20050;-83
2023/01/27 12:44:58;;;;;;;10.15;9.93;;;3.00;99.90;;;;;;4261070;27;20043;-83
2023/01/27 12:47:24;;;;;;;11.32;10.93;;;2.80;99.90;;;;;;4253793;27;20388;-83
2023/01/27 12:49:44;;;;;;;9.13;9.00;;;2.70;99.90;;;;;;4264048;27;20041;-84
2023/01/27 12:52:08;;;;;;;12.85;12.20;;;2.80;99.90;;;;;;4257734;27;20327;-84
2023/01/27 12:54:33;;;;;;;9.80;9.50;;;2.80;99.90;;;;;;4250447;27;20087;-83
2023/01/27 12:57:04;;;;;;;9.20;9.10;;;2.80;99.90;;;;;;4261696;27;20066;-83